Terminal Aerodrome Forecast
Issued by NWS

Home | Current Version | Previous Version | Text Only | Print | Product List | Glossary On
Versions: 1 2 3 4 5 6 7 8 9 10 11 12 13 14 15 16 17 18 19 20 21
000
FTUS43 KGRR 280500
TAFLAN
TAF
KLAN 280540Z 2806/2906 27011KT P6SM OVC020
      TEMPO 2806/2808 6SM -SHSN BKN015
     FM280800 28009KT P6SM OVC025
     FM281600 27007KT P6SM SCT025
     FM290300 28005KT P6SM OVC035=

USA.gov is the U.S. government's official web portal to all federal, state and local government web resources and services.